createdAt,value
2023-02-08T00:00:58.121Z,51.85
2023-02-08T00:03:26.025Z,51.78
2023-02-08T00:05:53.799Z,52.04
2023-02-08T00:08:21.541Z,51.92
2023-02-08T00:10:50.098Z,52.17
2023-02-08T00:13:17.979Z,51.95
2023-02-08T00:15:46.561Z,51.98
2023-02-08T00:18:14.596Z,52.15
2023-02-08T00:20:43.068Z,51.75
2023-02-08T00:23:11.101Z,52.36
2023-02-08T00:25:39.013Z,52.22
2023-02-08T00:28:09.175Z,51.93
2023-02-08T00:30:37.336Z,51.83
2023-02-08T00:33:05.264Z,52.04
2023-02-08T00:35:32.977Z,52.70
2023-02-08T00:38:00.811Z,52.61
2023-02-08T00:40:28.741Z,52.50
2023-02-08T00:42:58.078Z,52.67
2023-02-08T00:45:25.896Z,53.15
2023-02-08T00:47:53.646Z,52.91
2023-02-08T00:50:21.992Z,53.14
2023-02-08T00:52:50.040Z,52.86
2023-02-08T00:55:17.875Z,53.34
2023-02-08T00:57:45.703Z,53.12
2023-02-08T01:00:14.078Z,53.80
2023-02-08T01:02:41.882Z,53.62
2023-02-08T01:05:09.738Z,53.77
2023-02-08T01:07:38.302Z,53.38
2023-02-08T01:10:07.319Z,53.84
2023-02-08T01:12:35.563Z,53.96
2023-02-08T01:15:03.550Z,54.05
2023-02-08T01:17:31.524Z,53.94
2023-02-08T01:19:59.288Z,54.84
2023-02-08T01:22:29.022Z,54.59
2023-02-08T01:24:56.888Z,54.52
2023-02-08T01:27:24.752Z,55.00
2023-02-08T01:29:53.232Z,55.31
2023-02-08T01:32:21.210Z,54.71
2023-02-08T01:34:49.010Z,55.09
2023-02-08T01:37:16.853Z,55.51
2023-02-08T01:39:44.670Z,55.31
2023-02-08T01:42:17.561Z,55.00
2023-02-08T01:45:16.277Z,55.32
2023-02-08T01:47:44.987Z,55.33
2023-02-08T01:50:14.044Z,55.39
2023-02-08T01:52:42.865Z,55.17
2023-02-08T01:55:16.637Z,54.83
2023-02-08T01:57:45.164Z,55.04
2023-02-08T02:00:22.664Z,54.63
2023-02-08T02:02:53.879Z,54.46
2023-02-08T02:05:22.823Z,54.62
2023-02-08T02:07:50.704Z,53.62
2023-02-08T02:10:29.824Z,53.30
2023-02-08T02:12:58.287Z,52.51
2023-02-08T02:15:26.334Z,52.36
2023-02-08T02:17:54.205Z,52.12
2023-02-08T02:20:31.116Z,51.74
2023-02-08T02:23:13.738Z,51.64
2023-02-08T02:26:08.317Z,51.48
2023-02-08T02:28:51.141Z,51.57
2023-02-08T02:31:37.504Z,51.37
2023-02-08T02:34:18.144Z,51.39
2023-02-08T02:36:53.965Z,50.84
2023-02-08T02:39:28.482Z,49.84
2023-02-08T02:42:23.820Z,50.29
2023-02-08T02:45:08.106Z,49.79
2023-02-08T02:47:59.033Z,49.84
2023-02-08T02:50:46.930Z,49.73
2023-02-08T02:53:25.289Z,49.41
2023-02-08T02:56:02.735Z,49.97
2023-02-08T02:58:30.749Z,50.13
2023-02-08T03:00:59.572Z,49.31
2023-02-08T03:03:28.939Z,49.52
2023-02-08T03:05:59.781Z,49.17
2023-02-08T03:08:31.361Z,49.38
2023-02-08T03:11:19.097Z,49.18
2023-02-08T03:14:19.407Z,49.52
2023-02-08T03:17:40.882Z,49.41
2023-02-08T03:20:10.666Z,48.87
2023-02-08T03:23:09.120Z,49.29
2023-02-08T03:25:39.028Z,48.42
2023-02-08T03:28:20.748Z,48.94
2023-02-08T03:31:01.620Z,48.76
2023-02-08T03:33:41.152Z,48.80
2023-02-08T03:36:22.270Z,48.71
2023-02-08T03:38:50.284Z,48.78
2023-02-08T03:41:23.260Z,47.97
2023-02-08T03:44:06.419Z,48.43
2023-02-08T03:46:42.843Z,47.27
2023-02-08T03:49:22.595Z,47.10
2023-02-08T03:51:50.542Z,47.63
2023-02-08T03:54:23.293Z,47.56
2023-02-08T03:57:16.568Z,47.24
2023-02-08T03:59:47.603Z,46.20
2023-02-08T04:02:18.517Z,46.81
2023-02-08T04:04:47.693Z,46.26
2023-02-08T04:07:15.506Z,45.88
2023-02-08T04:09:43.408Z,45.67
2023-02-08T04:12:11.092Z,45.18
2023-02-08T04:14:38.823Z,45.30
2023-02-08T04:17:06.672Z,44.87
2023-02-08T04:19:34.512Z,45.04
2023-02-08T04:22:02.321Z,44.86
2023-02-08T04:24:30.145Z,44.76
2023-02-08T04:26:57.916Z,44.62
2023-02-08T04:29:25.760Z,45.28
2023-02-08T04:31:53.661Z,45.14
2023-02-08T04:34:21.548Z,45.84
2023-02-08T04:36:49.242Z,45.54
2023-02-08T04:39:16.987Z,45.72
2023-02-08T04:41:44.875Z,45.90
2023-02-08T04:44:12.536Z,46.04
2023-02-08T04:46:40.477Z,46.15
2023-02-08T04:49:08.310Z,46.47
2023-02-08T04:51:36.233Z,46.25
2023-02-08T04:54:04.082Z,46.08
2023-02-08T04:56:31.834Z,46.14
2023-02-08T04:58:59.875Z,46.25
2023-02-08T05:01:27.819Z,45.84
2023-02-08T05:03:55.658Z,45.67
2023-02-08T05:06:26.669Z,46.04
2023-02-08T05:08:54.488Z,46.28
2023-02-08T05:11:25.554Z,45.75
2023-02-08T05:13:53.500Z,45.85
2023-02-08T05:16:21.214Z,46.13
2023-02-08T05:18:49.011Z,46.07
2023-02-08T05:21:16.708Z,45.73
2023-02-08T05:23:46.438Z,45.28
2023-02-08T05:26:14.616Z,45.11
2023-02-08T05:28:42.510Z,44.75
2023-02-08T05:31:15.445Z,44.11
2023-02-08T05:33:43.469Z,43.93
2023-02-08T05:36:11.328Z,43.67
2023-02-08T05:38:39.136Z,43.65
2023-02-08T05:41:06.820Z,43.22
2023-02-08T05:43:34.540Z,42.51
2023-02-08T05:46:02.349Z,42.17
2023-02-08T05:48:31.578Z,42.09
2023-02-08T05:50:59.925Z,41.77
2023-02-08T05:53:27.982Z,41.70
2023-02-08T05:55:56.947Z,41.52
2023-02-08T05:58:24.817Z,41.34
2023-02-08T06:00:53.880Z,41.74
2023-02-08T06:03:21.774Z,41.93
2023-02-08T06:05:49.555Z,41.96
2023-02-08T06:08:17.369Z,41.82
2023-02-08T06:10:46.215Z,41.71
2023-02-08T06:13:14.042Z,41.68
2023-02-08T06:15:41.794Z,41.39
2023-02-08T06:18:09.638Z,41.23
2023-02-08T06:20:39.491Z,41.26
2023-02-08T06:23:07.576Z,41.46
2023-02-08T06:25:35.455Z,41.24
2023-02-08T06:28:03.640Z,41.36
2023-02-08T06:30:31.555Z,41.43
2023-02-08T06:32:59.484Z,41.87
2023-02-08T06:35:27.433Z,42.09
2023-02-08T06:37:55.378Z,42.12
2023-02-08T06:40:23.303Z,42.19
2023-02-08T06:42:51.096Z,42.04
2023-02-08T06:45:19.173Z,42.44
2023-02-08T06:47:47.045Z,42.35
2023-02-08T06:50:15.698Z,42.55
2023-02-08T06:52:43.535Z,42.83
2023-02-08T06:55:11.186Z,42.36
2023-02-08T06:57:38.969Z,42.12
2023-02-08T07:00:07.277Z,42.23
2023-02-08T07:02:35.068Z,41.83
2023-02-08T07:05:02.903Z,42.24
2023-02-08T07:07:30.841Z,42.14
2023-02-08T07:09:58.780Z,42.25
2023-02-08T07:12:26.415Z,42.33
2023-02-08T07:14:54.206Z,42.83
2023-02-08T07:17:22.262Z,42.78
2023-02-08T07:19:50.099Z,42.83
2023-02-08T07:22:17.808Z,43.28
2023-02-08T07:24:45.584Z,43.55
2023-02-08T07:27:13.532Z,43.70
2023-02-08T07:29:41.458Z,44.01
2023-02-08T07:32:09.461Z,43.93
2023-02-08T07:34:38.083Z,44.15
2023-02-08T07:37:05.733Z,44.04
2023-02-08T07:39:33.533Z,44.31
2023-02-08T07:42:01.348Z,44.47
2023-02-08T07:44:35.195Z,44.73
2023-02-08T07:47:02.921Z,44.84
2023-02-08T07:49:31.118Z,44.95
2023-02-08T07:52:02.183Z,45.26
2023-02-08T07:54:30.060Z,45.62
2023-02-08T07:56:57.926Z,45.56
2023-02-08T07:59:25.836Z,46.18
2023-02-08T08:01:53.845Z,46.15
2023-02-08T08:04:22.380Z,46.02
2023-02-08T08:06:51.953Z,46.11
2023-02-08T08:09:20.734Z,46.62
2023-02-08T08:11:48.554Z,46.48
2023-02-08T08:14:16.313Z,46.60
2023-02-08T08:16:44.322Z,46.49
2023-02-08T08:19:12.197Z,46.40
2023-02-08T08:21:40.058Z,46.65
2023-02-08T08:24:07.891Z,46.74
2023-02-08T08:26:35.793Z,46.57
2023-02-08T08:29:03.584Z,46.68
2023-02-08T08:31:31.626Z,46.98
2023-02-08T08:33:59.460Z,46.96
2023-02-08T08:36:27.217Z,47.02
2023-02-08T08:38:54.958Z,47.08
2023-02-08T08:41:23.585Z,46.53
2023-02-08T08:43:51.322Z,46.66
2023-02-08T08:46:19.399Z,46.65
2023-02-08T08:48:47.226Z,46.51
2023-02-08T08:51:15.101Z,46.52
2023-02-08T08:53:42.999Z,46.26
2023-02-08T08:56:10.815Z,45.87
2023-02-08T08:58:38.642Z,45.83
2023-02-08T09:01:06.534Z,45.69
2023-02-08T09:03:34.367Z,46.05
2023-02-08T09:06:02.143Z,46.23
2023-02-08T09:08:30.016Z,45.86
2023-02-08T09:10:57.773Z,46.20
2023-02-08T09:13:25.593Z,45.99
2023-02-08T09:15:53.427Z,46.11
2023-02-08T09:18:21.312Z,45.86
2023-02-08T09:20:49.061Z,45.87
2023-02-08T09:23:16.888Z,45.89
2023-02-08T09:25:44.742Z,46.01
2023-02-08T09:28:12.629Z,46.29
2023-02-08T09:30:40.609Z,46.04
2023-02-08T09:33:08.473Z,46.40
2023-02-08T09:35:36.249Z,46.53
2023-02-08T09:38:05.783Z,46.34
2023-02-08T09:40:48.678Z,46.60
2023-02-08T09:43:16.437Z,47.00
2023-02-08T09:46:00.392Z,47.12
2023-02-08T09:48:34.606Z,47.31
2023-02-08T09:51:28.601Z,47.45
2023-02-08T09:54:09.977Z,48.00
2023-02-08T09:56:40.809Z,48.38
2023-02-08T09:59:17.552Z,48.69
2023-02-08T10:01:45.481Z,49.42
2023-02-08T10:04:33.492Z,49.38
2023-02-08T10:07:01.354Z,49.68
2023-02-08T10:09:29.213Z,50.20
2023-02-08T10:12:33.937Z,50.34
2023-02-08T10:15:29.284Z,51.16
2023-02-08T10:18:00.002Z,51.45
2023-02-08T10:20:38.232Z,51.23
2023-02-08T10:23:36.743Z,51.55
2023-02-08T10:26:29.330Z,51.53
2023-02-08T10:29:42.361Z,51.91
2023-02-08T10:32:20.960Z,51.74
2023-02-08T10:34:51.107Z,51.60
2023-02-08T10:37:20.709Z,51.91
2023-02-08T10:39:49.597Z,52.07
2023-02-08T10:42:19.491Z,52.12
2023-02-08T10:45:01.908Z,52.28
2023-02-08T10:47:56.410Z,51.97
2023-02-08T10:50:37.695Z,51.88
2023-02-08T10:53:05.687Z,52.21
2023-02-08T10:55:36.208Z,51.97
2023-02-08T10:58:05.867Z,51.94
2023-02-08T11:00:35.459Z,51.85
2023-02-08T11:03:12.000Z,52.03
2023-02-08T11:05:41.120Z,51.89
2023-02-08T11:08:18.211Z,51.70
2023-02-08T11:11:09.225Z,51.93
2023-02-08T11:13:37.695Z,51.82
2023-02-08T11:16:06.798Z,51.98
2023-02-08T11:18:42.422Z,51.85
2023-02-08T11:21:22.082Z,52.20
2023-02-08T11:23:51.821Z,52.35
2023-02-08T11:26:24.952Z,52.48
2023-02-08T11:29:04.165Z,52.70
2023-02-08T11:31:32.575Z,53.16
2023-02-08T11:34:05.127Z,53.34
2023-02-08T11:36:34.487Z,53.60
2023-02-08T11:39:04.736Z,53.33
2023-02-08T11:41:32.546Z,53.63
2023-02-08T11:44:05.096Z,53.94
2023-02-08T11:46:35.719Z,53.61
2023-02-08T11:49:04.047Z,53.98
2023-02-08T11:51:35.837Z,53.94
2023-02-08T11:54:04.247Z,54.11
2023-02-08T11:56:33.440Z,53.87
2023-02-08T11:59:08.137Z,54.12
2023-02-08T12:01:37.659Z,54.27
2023-02-08T12:04:10.397Z,54.12
2023-02-08T12:06:48.659Z,54.29
2023-02-08T12:09:50.029Z,54.15
2023-02-08T12:12:29.891Z,54.54
2023-02-08T12:15:22.206Z,54.36
2023-02-08T12:18:37.337Z,54.33
2023-02-08T12:21:14.537Z,54.35
2023-02-08T12:23:50.354Z,54.24
2023-02-08T12:26:24.569Z,54.15
2023-02-08T12:29:07.672Z,54.01
2023-02-08T12:31:50.505Z,53.69
2023-02-08T12:34:34.308Z,53.77
2023-02-08T12:37:32.842Z,53.17
2023-02-08T12:40:37.098Z,53.11
2023-02-08T12:43:27.424Z,53.11
2023-02-08T12:46:13.706Z,53.40
2023-02-08T12:48:52.956Z,53.64
2023-02-08T12:51:23.502Z,54.35
2023-02-08T12:53:54.777Z,54.08
2023-02-08T12:56:28.574Z,54.22
2023-02-08T12:59:11.928Z,54.47
2023-02-08T13:01:45.806Z,54.68
2023-02-08T13:04:14.472Z,54.96
2023-02-08T13:06:43.796Z,54.76
2023-02-08T13:09:35.409Z,55.61
2023-02-08T13:12:16.832Z,55.65
2023-02-08T13:15:28.380Z,55.81
2023-02-08T13:18:18.634Z,55.51
2023-02-08T13:20:52.066Z,56.05
2023-02-08T13:23:34.811Z,56.75
2023-02-08T13:26:08.677Z,56.66
2023-02-08T13:28:36.405Z,56.41
2023-02-08T13:31:09.035Z,56.34
2023-02-08T13:34:01.996Z,56.33
2023-02-08T13:36:34.974Z,56.53
2023-02-08T13:39:04.999Z,56.84
2023-02-08T13:41:33.132Z,56.95
2023-02-08T13:44:08.628Z,57.00
2023-02-08T13:46:49.466Z,56.86
2023-02-08T13:49:51.163Z,57.14
2023-02-08T13:52:46.941Z,57.37
2023-02-08T13:55:38.659Z,57.53
2023-02-08T13:58:27.590Z,58.33
2023-02-08T14:00:55.392Z,58.57
2023-02-08T14:03:29.930Z,58.46
2023-02-08T14:06:17.456Z,58.58
2023-02-08T14:08:54.563Z,58.69
2023-02-08T14:11:31.341Z,58.56
2023-02-08T14:14:05.545Z,58.38
2023-02-08T14:16:38.963Z,58.28
2023-02-08T14:19:34.082Z,58.63
2023-02-08T14:22:01.725Z,58.39
2023-02-08T14:24:36.617Z,58.27
2023-02-08T14:27:23.056Z,58.40
2023-02-08T14:30:03.890Z,58.32
2023-02-08T14:32:39.546Z,58.03
2023-02-08T14:35:16.481Z,58.16
2023-02-08T14:37:44.790Z,58.26
2023-02-08T14:40:24.634Z,57.76
2023-02-08T14:43:19.935Z,57.99
2023-02-08T14:45:49.058Z,57.85
2023-02-08T14:48:27.871Z,57.59
2023-02-08T14:51:10.936Z,57.60
2023-02-08T14:53:57.835Z,57.68
2023-02-08T14:56:29.138Z,57.41
2023-02-08T14:59:12.202Z,57.35
2023-02-08T15:02:19.021Z,57.36
2023-02-08T15:04:47.252Z,57.27
2023-02-08T15:07:46.055Z,57.05
2023-02-08T15:10:15.202Z,57.04
2023-02-08T15:12:46.183Z,56.88
2023-02-08T15:15:29.463Z,56.91
2023-02-08T15:17:57.259Z,56.60
2023-02-08T15:20:29.312Z,56.54
2023-02-08T15:23:05.079Z,56.33
2023-02-08T15:25:36.849Z,56.07
2023-02-08T15:28:19.245Z,56.22
2023-02-08T15:30:47.228Z,56.20
2023-02-08T15:33:16.967Z,56.01
2023-02-08T15:35:45.234Z,56.10
2023-02-08T15:38:17.619Z,56.62
2023-02-08T15:40:45.751Z,56.31
2023-02-08T15:43:14.004Z,56.61
2023-02-08T15:45:41.949Z,56.48
2023-02-08T15:48:10.932Z,56.52
2023-02-08T15:50:38.741Z,56.77
2023-02-08T15:53:07.288Z,56.83
2023-02-08T15:55:39.456Z,56.69
2023-02-08T15:58:30.609Z,56.75
2023-02-08T16:00:59.918Z,57.13
2023-02-08T16:03:30.145Z,57.13
2023-02-08T16:06:00.013Z,56.94
2023-02-08T16:08:30.577Z,56.67
2023-02-08T16:11:12.902Z,57.18
2023-02-08T16:13:42.102Z,57.36
2023-02-08T16:16:19.893Z,57.62
2023-02-08T16:18:50.603Z,57.40
2023-02-08T16:21:42.843Z,57.80
2023-02-08T16:24:14.224Z,57.71
2023-02-08T16:26:59.883Z,57.44
2023-02-08T16:29:36.229Z,57.56
2023-02-08T16:32:27.763Z,57.65
2023-02-08T16:34:57.654Z,58.08
2023-02-08T16:37:29.305Z,57.64
2023-02-08T16:39:58.918Z,57.85
2023-02-08T16:42:40.118Z,58.34
2023-02-08T16:45:16.207Z,57.99
2023-02-08T16:47:54.105Z,57.82
2023-02-08T16:50:26.818Z,57.82
2023-02-08T16:53:04.338Z,57.98
2023-02-08T16:55:33.003Z,58.13
2023-02-08T16:58:00.857Z,57.44
2023-02-08T17:00:33.848Z,57.93
2023-02-08T17:03:01.783Z,58.18
2023-02-08T17:05:31.256Z,58.33
2023-02-08T17:07:59.259Z,58.52
2023-02-08T17:10:30.677Z,58.47
2023-02-08T17:13:17.402Z,58.18
2023-02-08T17:15:48.066Z,58.51
2023-02-08T17:18:17.258Z,58.95
2023-02-08T17:20:45.182Z,58.77
2023-02-08T17:23:13.866Z,58.68
2023-02-08T17:25:42.061Z,58.69
2023-02-08T17:28:15.186Z,58.68
2023-02-08T17:30:45.462Z,58.66
2023-02-08T17:33:18.748Z,58.70
2023-02-08T17:35:48.532Z,58.98
2023-02-08T17:38:16.553Z,59.38
2023-02-08T17:40:44.554Z,59.95
2023-02-08T17:43:12.699Z,60.18
2023-02-08T17:45:41.271Z,59.94
2023-02-08T17:48:09.455Z,60.35
2023-02-08T17:50:37.404Z,60.56
2023-02-08T17:53:05.284Z,60.46
2023-02-08T17:55:33.137Z,60.24
2023-02-08T17:58:00.901Z,60.29
2023-02-08T18:00:28.710Z,60.41
2023-02-08T18:02:57.940Z,60.54
2023-02-08T18:05:27.796Z,60.92
2023-02-08T18:07:58.349Z,60.76
2023-02-08T18:10:26.844Z,60.76
2023-02-08T18:12:54.599Z,60.82
2023-02-08T18:15:22.636Z,60.80
2023-02-08T18:17:54.174Z,60.87
2023-02-08T18:20:22.318Z,60.40
2023-02-08T18:22:50.084Z,60.43
2023-02-08T18:25:18.128Z,60.28
2023-02-08T18:27:45.831Z,60.29
2023-02-08T18:30:14.018Z,60.55
2023-02-08T18:32:41.815Z,60.45
2023-02-08T18:35:09.675Z,60.43
2023-02-08T18:37:37.996Z,60.38
2023-02-08T18:40:07.231Z,60.24
2023-02-08T18:42:40.890Z,60.02
2023-02-08T18:45:09.451Z,60.29
2023-02-08T18:47:37.693Z,60.38
2023-02-08T18:50:06.307Z,60.16
2023-02-08T18:52:34.065Z,60.15
2023-02-08T18:55:01.670Z,60.31
2023-02-08T18:57:29.544Z,60.26
2023-02-08T18:59:57.435Z,59.84
2023-02-08T19:02:27.578Z,59.90
2023-02-08T19:04:55.610Z,59.75
2023-02-08T19:07:23.533Z,60.34
2023-02-08T19:09:51.321Z,59.99
2023-02-08T19:12:19.378Z,60.22
2023-02-08T19:14:49.902Z,60.23
2023-02-08T19:17:17.694Z,60.30
2023-02-08T19:19:45.735Z,60.56
2023-02-08T19:22:13.489Z,60.55
2023-02-08T19:24:41.332Z,60.49
2023-02-08T19:27:09.110Z,60.34
2023-02-08T19:29:37.021Z,60.31
2023-02-08T19:32:05.276Z,60.40
2023-02-08T19:34:33.256Z,60.28
2023-02-08T19:37:01.240Z,60.55
2023-02-08T19:39:29.027Z,60.62
2023-02-08T19:41:59.171Z,60.58
2023-02-08T19:44:30.179Z,61.15
2023-02-08T19:46:58.291Z,61.57
2023-02-08T19:49:26.446Z,61.21
2023-02-08T19:51:54.519Z,61.92
2023-02-08T19:54:22.359Z,62.11
2023-02-08T19:56:55.020Z,62.52
2023-02-08T19:59:26.116Z,63.16
2023-02-08T20:01:54.681Z,63.05
2023-02-08T20:04:22.654Z,63.47
2023-02-08T20:06:53.703Z,64.12
2023-02-08T20:09:21.673Z,63.63
2023-02-08T20:11:56.748Z,63.88
2023-02-08T20:14:25.557Z,64.12
2023-02-08T20:16:53.497Z,64.48
2023-02-08T20:19:21.526Z,64.23
2023-02-08T20:21:49.322Z,63.97
2023-02-08T20:24:17.192Z,64.10
2023-02-08T20:26:45.983Z,64.17
2023-02-08T20:29:13.988Z,64.20
2023-02-08T20:31:43.165Z,63.95
2023-02-08T20:34:13.073Z,63.88
2023-02-08T20:36:49.626Z,63.60
2023-02-08T20:39:22.419Z,63.53
2023-02-08T20:41:50.321Z,63.11
2023-02-08T20:44:18.545Z,63.00
2023-02-08T20:46:46.994Z,62.74
2023-02-08T20:49:17.960Z,62.50
2023-02-08T20:51:45.618Z,62.83
2023-02-08T20:54:13.359Z,62.44
2023-02-08T20:56:41.308Z,62.30
2023-02-08T20:59:09.758Z,62.55
2023-02-08T21:01:37.614Z,62.11
2023-02-08T21:04:05.562Z,61.98
2023-02-08T21:06:34.933Z,61.42
2023-02-08T21:09:10.728Z,61.46
2023-02-08T21:11:38.654Z,62.15
2023-02-08T21:14:06.687Z,61.89
2023-02-08T21:16:34.574Z,62.14
2023-02-08T21:19:02.396Z,62.09
2023-02-08T21:21:30.321Z,62.00
2023-02-08T21:23:58.272Z,62.38
2023-02-08T21:26:26.465Z,62.28
2023-02-08T21:28:55.349Z,62.57
2023-02-08T21:31:23.794Z,62.15
2023-02-08T21:33:51.857Z,61.74
2023-02-08T21:36:22.041Z,61.57
2023-02-08T21:38:49.957Z,61.63
2023-02-08T21:41:28.043Z,61.19
2023-02-08T21:43:57.413Z,60.71
2023-02-08T21:46:25.330Z,60.74
2023-02-08T21:49:11.446Z,61.16
2023-02-08T21:51:57.916Z,60.88
2023-02-08T21:54:42.195Z,60.50
2023-02-08T21:57:15.855Z,60.14
2023-02-08T21:59:43.904Z,60.28
2023-02-08T22:02:17.319Z,59.96
2023-02-08T22:05:03.383Z,59.73
2023-02-08T22:07:42.085Z,59.71
2023-02-08T22:10:11.279Z,60.34
2023-02-08T22:12:41.424Z,60.10
2023-02-08T22:15:13.643Z,59.63
2023-02-08T22:17:41.637Z,59.44
2023-02-08T22:20:09.971Z,59.48
2023-02-08T22:22:37.907Z,59.35
2023-02-08T22:25:05.959Z,59.49
2023-02-08T22:27:34.899Z,59.42
2023-02-08T22:30:02.662Z,59.18
2023-02-08T22:32:30.544Z,58.74
2023-02-08T22:34:58.382Z,58.70
2023-02-08T22:37:26.222Z,58.93
2023-02-08T22:39:53.990Z,58.85
2023-02-08T22:42:21.776Z,59.00
2023-02-08T22:44:49.553Z,58.40
2023-02-08T22:47:17.357Z,58.49
2023-02-08T22:49:45.113Z,58.33
2023-02-08T22:52:12.923Z,58.64
2023-02-08T22:54:42.153Z,59.29
2023-02-08T22:57:10.353Z,58.64
2023-02-08T22:59:39.035Z,58.86
2023-02-08T23:02:06.782Z,58.99
2023-02-08T23:04:34.549Z,58.50
2023-02-08T23:07:02.382Z,58.47
2023-02-08T23:09:30.166Z,58.70
2023-02-08T23:11:58.024Z,58.65
2023-02-08T23:14:26.440Z,58.76
2023-02-08T23:16:54.329Z,58.62
2023-02-08T23:19:22.270Z,58.25
2023-02-08T23:21:50.180Z,58.99
2023-02-08T23:24:17.991Z,59.01
2023-02-08T23:26:45.798Z,58.25
2023-02-08T23:29:13.562Z,58.33
2023-02-08T23:31:41.693Z,58.19
2023-02-08T23:34:11.724Z,58.35
2023-02-08T23:36:39.601Z,58.75
2023-02-08T23:39:08.120Z,58.78
2023-02-08T23:41:35.960Z,58.87
2023-02-08T23:44:03.790Z,59.04
2023-02-08T23:46:32.026Z,58.63
2023-02-08T23:48:59.966Z,58.28
2023-02-08T23:51:27.841Z,58.04
2023-02-08T23:53:55.829Z,58.32
2023-02-08T23:56:28.117Z,57.63
2023-02-08T23:58:57.866Z,58.04
